Terminal Aerodrome Forecast
Issued by NWS Cleveland, OH

Home | Current Version | Previous Version | Text Only | Print | Product List | Glossary On
Versions: 1 2 3 4 5 6 7 8 9 10 11 12 13 14 15 16 17 18 19 20 21 22 23 24
000
FTUS41 KCLE 080007 AAA
TAFCLE
TAF AMD
KCLE 080007Z 0800/0906 22008KT P6SM VCSH BKN020
      TEMPO 0800/0802 5SM -SHRA OVC007
     FM080400 36008KT 6SM BR OVC015
     FM081600 03011KT P6SM BKN020 OVC050=

USA.gov is the U.S. government's official web portal to all federal, state and local government web resources and services.